createdAt,value
2018-08-27T00:00:08.739Z,77.40
2018-08-27T00:01:10.214Z,76.92
2018-08-27T00:02:11.542Z,76.92
2018-08-27T00:03:12.928Z,76.45
2018-08-27T00:04:14.334Z,76.64
2018-08-27T00:05:15.720Z,76.64
2018-08-27T00:06:20.195Z,76.54
2018-08-27T00:07:21.541Z,76.45
2018-08-27T00:08:22.926Z,76.45
2018-08-27T00:09:24.316Z,76.35
2018-08-27T00:10:25.694Z,76.54
2018-08-27T00:11:27.078Z,76.45
2018-08-27T00:12:28.520Z,76.25
2018-08-27T00:13:29.901Z,76.16
2018-08-27T00:14:31.495Z,76.16
2018-08-27T00:15:32.891Z,76.54
2018-08-27T00:16:34.267Z,76.45
2018-08-27T00:17:35.648Z,77.11
2018-08-27T00:18:37.038Z,76.64
2018-08-27T00:19:38.423Z,76.45
2018-08-27T00:20:39.804Z,76.45
2018-08-27T00:21:41.184Z,77.01
2018-08-27T00:22:42.591Z,76.92
2018-08-27T00:23:43.971Z,76.45
2018-08-27T00:24:45.348Z,77.01
2018-08-27T00:25:46.734Z,77.21
2018-08-27T00:26:48.111Z,76.79
2018-08-27T00:27:49.493Z,76.73
2018-08-27T00:28:50.877Z,76.73
2018-08-27T00:29:52.267Z,77.36
2018-08-27T00:30:53.659Z,77.45
2018-08-27T00:31:55.027Z,77.17
2018-08-27T00:32:56.415Z,77.17
2018-08-27T00:33:58.048Z,77.17
2018-08-27T00:34:59.437Z,77.08
2018-08-27T00:36:00.825Z,76.88
2018-08-27T00:37:02.365Z,76.79
2018-08-27T00:38:03.749Z,77.36
2018-08-27T00:39:05.126Z,77.17
2018-08-27T00:40:06.548Z,76.69
2018-08-27T00:41:07.937Z,77.17
2018-08-27T00:42:09.319Z,76.69
2018-08-27T00:43:10.695Z,77.17
2018-08-27T00:44:12.081Z,77.50
2018-08-27T00:45:13.466Z,77.40
2018-08-27T00:46:14.859Z,77.08
2018-08-27T00:47:16.254Z,76.88
2018-08-27T00:48:17.631Z,76.69
2018-08-27T00:49:19.191Z,76.88
2018-08-27T00:50:20.567Z,77.26
2018-08-27T00:51:21.957Z,77.40
2018-08-27T00:52:23.428Z,77.21
2018-08-27T00:53:24.806Z,77.30
2018-08-27T00:54:26.186Z,77.40
2018-08-27T00:55:27.709Z,77.40
2018-08-27T00:56:29.090Z,76.92
2018-08-27T00:57:30.471Z,76.82
2018-08-27T00:58:32.058Z,76.73
2018-08-27T00:59:33.441Z,76.54
2018-08-27T01:00:34.994Z,76.31
2018-08-27T01:01:36.333Z,76.06
2018-08-27T01:02:37.708Z,76.35
2018-08-27T01:03:39.287Z,76.25
2018-08-27T01:04:40.680Z,76.06
2018-08-27T01:05:42.060Z,76.25
2018-08-27T01:06:43.812Z,75.68
2018-08-27T01:07:45.200Z,75.74
2018-08-27T01:08:46.577Z,75.87
2018-08-27T01:09:48.156Z,75.54
2018-08-27T01:10:49.534Z,75.49
2018-08-27T01:11:50.922Z,75.83
2018-08-27T01:12:52.497Z,75.74
2018-08-27T01:13:53.875Z,75.20
2018-08-27T01:14:55.255Z,75.45
2018-08-27T01:15:56.634Z,75.16
2018-08-27T01:16:58.012Z,75.35
2018-08-27T01:17:59.401Z,75.35
2018-08-27T01:19:01.139Z,75.45
2018-08-27T01:20:02.490Z,75.68
2018-08-27T01:21:03.860Z,75.83
2018-08-27T01:22:05.251Z,75.64
2018-08-27T01:23:06.623Z,75.54
2018-08-27T01:24:08.019Z,75.74
2018-08-27T01:25:10.088Z,75.45
2018-08-27T01:26:11.485Z,75.74
2018-08-27T01:27:12.873Z,75.35
2018-08-27T01:28:14.272Z,75.26
2018-08-27T01:29:15.661Z,75.35
2018-08-27T01:30:17.065Z,75.54
2018-08-27T01:31:18.459Z,75.93
2018-08-27T01:32:19.848Z,75.54
2018-08-27T01:33:21.249Z,75.26
2018-08-27T01:34:22.661Z,75.07
2018-08-27T01:35:24.045Z,74.69
2018-08-27T01:36:25.419Z,74.78
2018-08-27T01:37:26.808Z,74.78
2018-08-27T01:38:28.195Z,74.88
2018-08-27T01:39:29.569Z,74.69
2018-08-27T01:40:30.957Z,75.26
2018-08-27T01:41:32.346Z,75.35
2018-08-27T01:42:34.730Z,75.26
2018-08-27T01:43:35.092Z,75.16
2018-08-27T01:44:36.493Z,74.98
2018-08-27T01:45:37.870Z,74.78
2018-08-27T01:46:39.257Z,75.54
2018-08-27T01:47:41.213Z,75.35
2018-08-27T01:48:42.601Z,74.69
2018-08-27T01:49:43.978Z,74.69
2018-08-27T01:50:45.363Z,74.78
2018-08-27T01:51:46.749Z,74.78
2018-08-27T01:52:48.126Z,74.59
2018-08-27T01:53:49.503Z,74.30
2018-08-27T01:54:50.889Z,74.11
2018-08-27T01:55:52.275Z,73.92
2018-08-27T01:56:53.664Z,73.92
2018-08-27T01:57:55.045Z,73.92
2018-08-27T01:58:56.427Z,74.11
2018-08-27T01:59:57.815Z,73.92
2018-08-27T02:00:59.200Z,73.92
2018-08-27T02:02:00.585Z,74.11
2018-08-27T02:03:01.970Z,74.02
2018-08-27T02:04:03.354Z,74.02
2018-08-27T02:05:04.743Z,74.30
2018-08-27T02:06:06.128Z,73.83
2018-08-27T02:07:07.511Z,73.92
2018-08-27T02:08:08.888Z,73.63
2018-08-27T02:09:10.271Z,73.44
2018-08-27T02:10:11.650Z,73.92
2018-08-27T02:11:13.041Z,74.11
2018-08-27T02:12:14.416Z,73.54
2018-08-27T02:13:15.809Z,73.63
2018-08-27T02:14:17.182Z,73.83
2018-08-27T02:15:18.569Z,73.35
2018-08-27T02:16:19.954Z,73.07
2018-08-27T02:17:21.345Z,73.25
2018-08-27T02:18:22.728Z,73.63
2018-08-27T02:19:24.129Z,72.49
2018-08-27T02:20:25.501Z,72.68
2018-08-27T02:21:26.899Z,72.78
2018-08-27T02:22:28.281Z,73.16
2018-08-27T02:23:29.659Z,73.07
2018-08-27T02:24:31.037Z,72.68
2018-08-27T02:25:32.430Z,72.87
2018-08-27T02:26:33.805Z,72.87
2018-08-27T02:27:35.233Z,72.78
2018-08-27T02:28:36.588Z,73.25
2018-08-27T02:29:37.964Z,73.16
2018-08-27T02:30:39.362Z,73.54
2018-08-27T02:31:40.742Z,73.44
2018-08-27T02:32:42.132Z,73.07
2018-08-27T02:33:43.515Z,73.16
2018-08-27T02:34:44.902Z,73.54
2018-08-27T02:35:46.287Z,73.07
2018-08-27T02:36:47.665Z,73.16
2018-08-27T02:37:49.049Z,73.25
2018-08-27T02:38:50.420Z,73.73
2018-08-27T02:39:51.893Z,73.44
2018-08-27T02:40:53.281Z,72.78
2018-08-27T02:41:54.663Z,73.25
2018-08-27T02:42:56.043Z,72.97
2018-08-27T02:43:57.415Z,72.97
2018-08-27T02:44:58.800Z,72.58
2018-08-27T02:46:00.183Z,72.87
2018-08-27T02:47:01.570Z,72.87
2018-08-27T02:48:02.960Z,72.78
2018-08-27T02:49:04.348Z,72.30
2018-08-27T02:50:05.733Z,72.68
2018-08-27T02:51:07.104Z,72.68
2018-08-27T02:52:08.490Z,72.68
2018-08-27T02:53:09.872Z,72.49
2018-08-27T02:54:11.262Z,72.49
2018-08-27T02:55:12.636Z,72.20
2018-08-27T02:56:14.018Z,71.92
2018-08-27T02:57:15.409Z,71.72
2018-08-27T02:58:16.784Z,72.49
2018-08-27T02:59:18.172Z,72.30
2018-08-27T03:00:21.330Z,71.92
2018-08-27T03:01:22.710Z,71.82
2018-08-27T03:02:24.089Z,72.11
2018-08-27T03:03:25.492Z,71.82
2018-08-27T03:04:26.873Z,72.01
2018-08-27T03:05:28.264Z,72.01
2018-08-27T03:06:29.649Z,71.92
2018-08-27T03:07:31.042Z,71.92
2018-08-27T03:08:32.440Z,72.01
2018-08-27T03:09:33.829Z,71.92
2018-08-27T03:10:35.213Z,71.44
2018-08-27T03:11:36.586Z,71.53
2018-08-27T03:12:37.980Z,72.20
2018-08-27T03:13:39.361Z,71.53
2018-08-27T03:14:40.743Z,71.63
2018-08-27T03:15:42.131Z,72.01
2018-08-27T03:16:43.525Z,72.11
2018-08-27T03:17:44.896Z,72.01
2018-08-27T03:18:46.281Z,71.72
2018-08-27T03:19:47.681Z,71.72
2018-08-27T03:20:49.061Z,71.53
2018-08-27T03:21:50.439Z,71.63
2018-08-27T03:22:51.823Z,71.25
2018-08-27T03:23:53.211Z,71.15
2018-08-27T03:24:54.664Z,71.72
2018-08-27T03:25:55.938Z,71.53
2018-08-27T03:26:57.351Z,71.72
2018-08-27T03:27:58.752Z,71.63
2018-08-27T03:29:00.131Z,71.63
2018-08-27T03:30:01.513Z,71.34
2018-08-27T03:31:02.894Z,71.06
2018-08-27T03:32:04.936Z,71.34
2018-08-27T03:33:06.318Z,70.87
2018-08-27T03:34:07.714Z,70.77
2018-08-27T03:35:09.102Z,70.58
2018-08-27T03:36:10.473Z,70.87
2018-08-27T03:37:11.864Z,70.10
2018-08-27T03:38:13.246Z,70.77
2018-08-27T03:39:14.628Z,70.67
2018-08-27T03:40:16.018Z,70.77
2018-08-27T03:41:17.409Z,70.77
2018-08-27T03:42:18.785Z,70.77
2018-08-27T03:43:20.167Z,70.10
2018-08-27T03:44:21.553Z,70.20
2018-08-27T03:45:22.981Z,70.39
2018-08-27T03:46:24.317Z,70.29
2018-08-27T03:47:27.375Z,70.29
2018-08-27T03:48:28.761Z,70.39
2018-08-27T03:49:30.151Z,70.48
2018-08-27T03:50:31.538Z,70.48
2018-08-27T03:51:32.917Z,70.48
2018-08-27T03:52:34.303Z,70.01
2018-08-27T03:53:35.691Z,69.62
2018-08-27T03:54:37.079Z,69.91
2018-08-27T03:55:38.457Z,69.62
2018-08-27T03:56:39.849Z,69.62
2018-08-27T03:57:41.226Z,69.53
2018-08-27T03:58:42.648Z,70.29
2018-08-27T03:59:44.034Z,69.91
2018-08-27T04:00:45.407Z,69.82
2018-08-27T04:01:46.788Z,69.34
2018-08-27T04:02:48.194Z,69.34
2018-08-27T04:03:49.592Z,69.43
2018-08-27T04:04:50.970Z,69.53
2018-08-27T04:05:52.355Z,69.53
2018-08-27T04:06:53.746Z,69.43
2018-08-27T04:07:55.122Z,69.24
2018-08-27T04:08:56.518Z,69.34
2018-08-27T04:09:57.902Z,69.53
2018-08-27T04:10:59.287Z,69.62
2018-08-27T04:12:00.665Z,69.15
2018-08-27T04:13:02.057Z,69.34
2018-08-27T04:14:03.443Z,69.34
2018-08-27T04:15:04.867Z,68.96
2018-08-27T04:16:06.265Z,68.96
2018-08-27T04:17:07.644Z,69.43
2018-08-27T04:18:09.032Z,69.15
2018-08-27T04:19:10.423Z,69.24
2018-08-27T04:20:11.819Z,68.86
2018-08-27T04:21:13.199Z,69.24
2018-08-27T04:22:14.581Z,68.86
2018-08-27T04:23:15.978Z,68.48
2018-08-27T04:24:17.349Z,68.96
2018-08-27T04:25:18.758Z,68.38
2018-08-27T04:26:20.135Z,68.57
2018-08-27T04:27:21.522Z,68.57
2018-08-27T04:28:22.906Z,68.38
2018-08-27T04:29:24.281Z,68.48
2018-08-27T04:30:25.668Z,68.10
2018-08-27T04:31:27.056Z,68.00
2018-08-27T04:32:28.452Z,67.52
2018-08-27T04:33:29.842Z,67.05
2018-08-27T04:34:31.235Z,67.71
2018-08-27T04:35:33.330Z,67.05
2018-08-27T04:36:34.743Z,67.14
2018-08-27T04:37:36.113Z,66.66
2018-08-27T04:38:37.488Z,66.85
2018-08-27T04:39:38.885Z,66.28
2018-08-27T04:40:40.271Z,66.38
2018-08-27T04:41:41.659Z,66.09
2018-08-27T04:42:43.087Z,66.28
2018-08-27T04:43:44.448Z,66.09
2018-08-27T04:44:45.816Z,66.22
2018-08-27T04:45:47.210Z,65.84
2018-08-27T04:46:48.601Z,65.55
2018-08-27T04:47:49.990Z,65.17
2018-08-27T04:48:51.373Z,65.45
2018-08-27T04:49:52.758Z,65.64
2018-08-27T04:50:54.148Z,65.64
2018-08-27T04:51:55.670Z,65.07
2018-08-27T04:52:57.056Z,65.26
2018-08-27T04:53:58.456Z,64.69
2018-08-27T04:54:59.852Z,65.55
2018-08-27T04:56:01.240Z,64.98
2018-08-27T04:57:02.626Z,64.69
2018-08-27T04:58:04.051Z,64.78
2018-08-27T04:59:05.421Z,64.59
2018-08-27T05:00:06.856Z,64.31
2018-08-27T05:01:08.249Z,64.59
2018-08-27T05:02:09.629Z,64.59
2018-08-27T05:03:11.018Z,64.31
2018-08-27T05:04:12.416Z,63.73
2018-08-27T05:05:13.795Z,64.50
2018-08-27T05:06:15.181Z,64.43
2018-08-27T05:07:17.351Z,63.83
2018-08-27T05:08:18.737Z,63.93
2018-08-27T05:09:20.150Z,63.73
2018-08-27T05:10:21.548Z,63.54
2018-08-27T05:11:22.930Z,64.15
2018-08-27T05:12:24.319Z,64.15
2018-08-27T05:13:25.708Z,64.12
2018-08-27T05:14:27.094Z,63.96
2018-08-27T05:15:28.486Z,63.96
2018-08-27T05:16:29.878Z,63.96
2018-08-27T05:17:31.273Z,63.57
2018-08-27T05:18:32.654Z,63.10
2018-08-27T05:19:34.048Z,63.19
2018-08-27T05:20:35.437Z,63.29
2018-08-27T05:21:36.825Z,63.48
2018-08-27T05:22:38.211Z,63.39
2018-08-27T05:23:39.635Z,63.10
2018-08-27T05:24:40.984Z,63.39
2018-08-27T05:25:42.387Z,62.90
2018-08-27T05:26:43.765Z,63.39
2018-08-27T05:27:45.149Z,62.81
2018-08-27T05:28:46.548Z,62.71
2018-08-27T05:29:47.939Z,62.24
2018-08-27T05:30:49.353Z,62.33
2018-08-27T05:31:50.723Z,62.52
2018-08-27T05:32:52.118Z,62.43
2018-08-27T05:33:53.511Z,62.04
2018-08-27T05:34:54.899Z,62.62
2018-08-27T05:35:56.277Z,62.62
2018-08-27T05:36:57.661Z,62.14
2018-08-27T05:37:59.059Z,61.95
2018-08-27T05:39:01.216Z,62.14
2018-08-27T05:40:02.606Z,62.04
2018-08-27T05:41:04.013Z,62.04
2018-08-27T05:42:05.395Z,62.43
2018-08-27T05:43:06.776Z,62.33
2018-08-27T05:44:08.163Z,62.24
2018-08-27T05:45:09.549Z,62.37
2018-08-27T05:46:10.941Z,61.98
2018-08-27T05:47:12.368Z,61.88
2018-08-27T05:48:13.756Z,61.51
2018-08-27T05:49:15.150Z,60.83
2018-08-27T05:50:16.518Z,61.12
2018-08-27T05:51:17.924Z,61.02
2018-08-27T05:52:19.393Z,60.83
2018-08-27T05:53:20.653Z,61.02
2018-08-27T05:54:22.039Z,60.86
2018-08-27T05:55:23.424Z,61.25
2018-08-27T05:56:24.814Z,60.96
2018-08-27T05:57:26.189Z,61.15
2018-08-27T05:58:27.575Z,61.05
2018-08-27T05:59:28.964Z,60.77
2018-08-27T06:00:30.351Z,60.58
2018-08-27T06:01:31.812Z,60.38
2018-08-27T06:02:33.085Z,60.10
2018-08-27T06:03:34.475Z,60.00
2018-08-27T06:04:35.862Z,60.38
2018-08-27T06:05:37.245Z,60.29
2018-08-27T06:06:38.637Z,60.58
2018-08-27T06:07:40.023Z,60.48
2018-08-27T06:08:41.415Z,60.48
2018-08-27T06:09:42.858Z,60.96
2018-08-27T06:10:44.145Z,60.38
2018-08-27T06:11:45.526Z,60.58
2018-08-27T06:12:46.932Z,60.48
2018-08-27T06:13:48.303Z,60.19
2018-08-27T06:14:49.703Z,60.29
2018-08-27T06:15:51.102Z,60.10
2018-08-27T06:16:52.493Z,60.00
2018-08-27T06:17:53.908Z,59.81
2018-08-27T06:18:55.295Z,59.81
2018-08-27T06:19:56.681Z,59.72
2018-08-27T06:20:58.057Z,59.52
2018-08-27T06:21:59.468Z,59.43
2018-08-27T06:23:00.842Z,59.91
2018-08-27T06:24:02.266Z,59.62
2018-08-27T06:25:03.671Z,59.05
2018-08-27T06:26:05.042Z,60.00
2018-08-27T06:27:06.434Z,59.43
2018-08-27T06:28:07.819Z,59.81
2018-08-27T06:29:09.200Z,59.81
2018-08-27T06:30:10.580Z,59.62
2018-08-27T06:31:12.018Z,60.00
2018-08-27T06:32:13.402Z,59.72
2018-08-27T06:33:14.792Z,59.81
2018-08-27T06:34:16.169Z,59.91
2018-08-27T06:35:17.546Z,60.00
2018-08-27T06:36:18.929Z,59.72
2018-08-27T06:37:20.321Z,59.91
2018-08-27T06:38:21.712Z,60.00
2018-08-27T06:39:23.108Z,60.00
2018-08-27T06:40:24.488Z,59.94
2018-08-27T06:41:25.883Z,59.94
2018-08-27T06:42:27.260Z,59.94
2018-08-27T06:43:28.656Z,59.72
2018-08-27T06:44:30.166Z,59.55
2018-08-27T06:45:31.426Z,59.84
2018-08-27T06:46:32.820Z,59.75
2018-08-27T06:47:34.199Z,59.84
2018-08-27T06:48:35.590Z,59.75
2018-08-27T06:49:36.983Z,60.03
2018-08-27T06:50:38.367Z,59.55
2018-08-27T06:51:39.758Z,59.84
2018-08-27T06:52:41.153Z,59.75
2018-08-27T06:53:42.540Z,59.94
2018-08-27T06:54:43.925Z,59.45
2018-08-27T06:55:45.318Z,59.84
2018-08-27T06:56:46.725Z,59.36
2018-08-27T06:57:48.100Z,59.36
2018-08-27T06:58:49.556Z,59.75
2018-08-27T06:59:50.938Z,59.45
2018-08-27T07:00:52.429Z,59.65
2018-08-27T07:01:53.829Z,59.84
2018-08-27T07:02:55.218Z,59.17
2018-08-27T07:03:56.678Z,59.27
2018-08-27T07:04:58.051Z,59.45
2018-08-27T07:05:59.469Z,59.55
2018-08-27T07:07:00.839Z,59.17
2018-08-27T07:08:02.238Z,59.17
2018-08-27T07:09:03.638Z,59.20
2018-08-27T07:10:05.022Z,59.20
2018-08-27T07:11:06.415Z,58.81
2018-08-27T07:12:07.846Z,59.20
2018-08-27T07:13:09.251Z,58.91
2018-08-27T07:14:10.626Z,58.91
2018-08-27T07:15:12.025Z,58.91
2018-08-27T07:16:13.404Z,58.53
2018-08-27T07:17:14.800Z,57.86
2018-08-27T07:18:16.175Z,57.95
2018-08-27T07:19:17.566Z,57.76
2018-08-27T07:20:19.026Z,57.67
2018-08-27T07:21:20.355Z,57.95
2018-08-27T07:22:21.735Z,57.09
2018-08-27T07:23:23.137Z,57.12
2018-08-27T07:24:24.547Z,57.03
2018-08-27T07:25:25.920Z,56.35
2018-08-27T07:26:27.365Z,56.26
2018-08-27T07:27:28.789Z,55.97
2018-08-27T07:28:30.163Z,55.49
2018-08-27T07:29:31.561Z,55.97
2018-08-27T07:30:32.948Z,55.71
2018-08-27T07:31:34.350Z,55.68
2018-08-27T07:32:35.744Z,55.80
2018-08-27T07:33:37.134Z,56.00
2018-08-27T07:34:38.528Z,55.13
2018-08-27T07:35:39.966Z,55.16
2018-08-27T07:36:41.344Z,55.16
2018-08-27T07:37:42.654Z,54.68
2018-08-27T07:38:44.120Z,55.16
2018-08-27T07:39:45.538Z,55.07
2018-08-27T07:40:46.947Z,54.42
2018-08-27T07:41:48.340Z,53.85
2018-08-27T07:42:49.731Z,53.85
2018-08-27T07:43:51.125Z,54.42
2018-08-27T07:44:52.518Z,54.04
2018-08-27T07:45:53.905Z,53.46
2018-08-27T07:46:55.299Z,54.13
2018-08-27T07:47:56.689Z,53.36
2018-08-27T07:48:58.077Z,53.36
2018-08-27T07:50:00.368Z,53.27
2018-08-27T07:51:01.760Z,52.50
2018-08-27T07:52:03.162Z,52.89
2018-08-27T07:53:04.547Z,52.79
2018-08-27T07:54:05.943Z,52.12
2018-08-27T07:55:07.325Z,51.73
2018-08-27T07:56:08.728Z,51.57
2018-08-27T07:57:10.113Z,51.54
2018-08-27T07:58:11.500Z,51.83
2018-08-27T07:59:12.897Z,52.12
2018-08-27T08:00:14.280Z,51.73
2018-08-27T08:01:15.740Z,51.64
2018-08-27T08:02:17.527Z,51.35
2018-08-27T08:03:18.927Z,51.18
2018-08-27T08:04:20.326Z,50.80
2018-08-27T08:05:21.719Z,50.70
2018-08-27T08:06:23.104Z,51.28
2018-08-27T08:07:24.556Z,51.47
2018-08-27T08:08:25.932Z,51.37
2018-08-27T08:09:27.320Z,50.61
2018-08-27T08:10:28.724Z,50.70
2018-08-27T08:11:30.119Z,50.51
2018-08-27T08:12:31.513Z,50.80
2018-08-27T08:13:32.939Z,50.82
2018-08-27T08:14:34.332Z,50.82
2018-08-27T08:15:35.729Z,50.34
2018-08-27T08:16:37.118Z,50.92
2018-08-27T08:17:38.518Z,50.25
2018-08-27T08:18:39.908Z,50.44
2018-08-27T08:19:41.301Z,50.25
2018-08-27T08:20:42.699Z,49.96
2018-08-27T08:21:44.095Z,50.15
2018-08-27T08:22:45.521Z,50.46
2018-08-27T08:23:46.869Z,50.66
2018-08-27T08:24:48.256Z,51.43
2018-08-27T08:25:49.659Z,51.81
2018-08-27T08:26:51.036Z,51.81
2018-08-27T08:27:52.431Z,51.81
2018-08-27T08:28:53.841Z,51.91
2018-08-27T08:29:55.263Z,52.48
2018-08-27T08:30:56.651Z,51.04
2018-08-27T08:31:58.050Z,52.10
2018-08-27T08:32:59.441Z,51.14
2018-08-27T08:34:00.850Z,51.81
2018-08-27T08:35:02.252Z,50.18
2018-08-27T08:36:03.636Z,50.95
2018-08-27T08:37:05.017Z,50.66
2018-08-27T08:38:06.434Z,50.37
2018-08-27T08:39:07.821Z,50.76
2018-08-27T08:40:09.226Z,51.23
2018-08-27T08:41:10.626Z,51.04
2018-08-27T08:42:12.014Z,52.10
2018-08-27T08:43:13.401Z,51.72
2018-08-27T08:44:14.803Z,50.95
2018-08-27T08:45:16.194Z,50.08
2018-08-27T08:46:17.595Z,50.08
2018-08-27T08:47:18.981Z,49.99
2018-08-27T08:48:20.386Z,50.85
2018-08-27T08:49:21.773Z,51.04
2018-08-27T08:50:23.200Z,50.95
2018-08-27T08:51:24.597Z,51.14
2018-08-27T08:52:26.009Z,50.95
2018-08-27T08:53:27.475Z,50.27
2018-08-27T08:54:28.802Z,51.81
2018-08-27T08:55:30.200Z,50.95
2018-08-27T08:56:31.586Z,50.18
2018-08-27T08:57:32.977Z,51.62
2018-08-27T08:58:34.394Z,51.04
2018-08-27T08:59:35.827Z,50.46
2018-08-27T09:00:37.187Z,50.08
2018-08-27T09:01:38.632Z,49.99
2018-08-27T09:02:39.977Z,50.27
2018-08-27T09:03:41.364Z,50.01
2018-08-27T09:04:42.776Z,50.30
2018-08-27T09:05:44.179Z,50.49
2018-08-27T09:06:45.571Z,50.20
2018-08-27T09:07:46.954Z,50.40
2018-08-27T09:08:48.415Z,50.78
2018-08-27T09:09:49.731Z,50.10
2018-08-27T09:10:51.119Z,49.53
2018-08-27T09:11:52.526Z,49.43
2018-08-27T09:12:53.917Z,49.53
2018-08-27T09:13:55.315Z,49.24
2018-08-27T09:14:56.705Z,48.57
2018-08-27T09:15:58.127Z,48.57
2018-08-27T09:16:59.547Z,48.57
2018-08-27T09:18:00.903Z,48.57
2018-08-27T09:19:02.294Z,48.59
2018-08-27T09:20:03.686Z,47.92
2018-08-27T09:21:05.072Z,48.57
2018-08-27T09:22:06.462Z,48.76
2018-08-27T09:23:07.868Z,48.85
2018-08-27T09:24:09.254Z,48.28
2018-08-27T09:25:10.643Z,49.33
2018-08-27T09:26:12.037Z,49.24
2018-08-27T09:27:13.424Z,49.15
2018-08-27T09:28:14.822Z,49.43
2018-08-27T09:29:16.214Z,48.76
2018-08-27T09:30:17.609Z,47.72
2018-08-27T09:31:19.043Z,48.02
2018-08-27T09:32:20.390Z,47.53
2018-08-27T09:33:21.786Z,47.92
2018-08-27T09:34:23.186Z,48.30
2018-08-27T09:35:24.580Z,48.21
2018-08-27T09:36:25.967Z,47.63
2018-08-27T09:37:27.390Z,47.08
2018-08-27T09:38:28.756Z,46.98
2018-08-27T09:39:30.156Z,47.36
2018-08-27T09:40:31.550Z,47.65
2018-08-27T09:41:33.007Z,47.36
2018-08-27T09:42:34.328Z,47.29
2018-08-27T09:43:35.730Z,46.64
2018-08-27T09:44:37.140Z,46.06
2018-08-27T09:45:38.532Z,45.39
2018-08-27T09:46:39.913Z,45.68
2018-08-27T09:47:41.314Z,46.35
2018-08-27T09:48:42.705Z,46.45
2018-08-27T09:49:44.111Z,46.62
2018-08-27T09:50:45.505Z,46.45
2018-08-27T09:51:46.900Z,45.97
2018-08-27T09:52:48.405Z,45.68
2018-08-27T09:53:49.693Z,46.35
2018-08-27T09:54:51.080Z,46.55
2018-08-27T09:55:52.474Z,46.62
2018-08-27T09:56:53.877Z,46.81
2018-08-27T09:57:55.264Z,47.03
2018-08-27T09:58:56.686Z,46.71
2018-08-27T09:59:58.044Z,46.42
2018-08-27T10:00:59.440Z,46.81
2018-08-27T10:02:00.830Z,46.42
2018-08-27T10:03:02.222Z,46.62
2018-08-27T10:04:03.616Z,46.14
2018-08-27T10:05:05.791Z,45.84
2018-08-27T10:06:07.183Z,45.75
2018-08-27T10:07:08.580Z,45.63
2018-08-27T10:08:09.977Z,46.40
2018-08-27T10:09:11.421Z,46.50
2018-08-27T10:10:12.767Z,46.59
2018-08-27T10:11:14.155Z,46.69
2018-08-27T10:12:15.550Z,46.78
2018-08-27T10:13:16.958Z,46.88
2018-08-27T10:14:18.346Z,47.27
2018-08-27T10:15:19.753Z,47.46
2018-08-27T10:16:21.136Z,47.56
2018-08-27T10:17:22.533Z,47.65
2018-08-27T10:18:23.917Z,47.65
2018-08-27T10:19:25.317Z,47.56
2018-08-27T10:20:26.719Z,47.56
2018-08-27T10:21:28.126Z,47.56
2018-08-27T10:22:29.578Z,47.17
2018-08-27T10:23:30.951Z,47.36
2018-08-27T10:24:32.356Z,47.65
2018-08-27T10:25:33.743Z,47.56
2018-08-27T10:26:35.223Z,47.75
2018-08-27T10:27:36.490Z,48.33
2018-08-27T10:28:37.889Z,47.94
2018-08-27T10:29:39.277Z,48.13
2018-08-27T10:30:40.672Z,48.81
2018-08-27T10:31:42.073Z,48.23
2018-08-27T10:32:43.455Z,48.33
2018-08-27T10:33:44.889Z,48.43
2018-08-27T10:34:46.290Z,48.33
2018-08-27T10:35:47.694Z,48.61
2018-08-27T10:36:49.082Z,48.52
2018-08-27T10:37:50.462Z,49.29
2018-08-27T10:38:51.860Z,49.29
2018-08-27T10:39:53.262Z,50.06
2018-08-27T10:40:54.657Z,51.12
2018-08-27T10:41:56.072Z,53.05
2018-08-27T10:42:57.477Z,53.40
2018-08-27T10:43:58.828Z,53.98
2018-08-27T10:45:00.224Z,53.98
2018-08-27T10:46:01.674Z,54.65
2018-08-27T10:47:03.155Z,54.75
2018-08-27T10:48:04.539Z,55.90
2018-08-27T10:49:05.947Z,56.00
2018-08-27T10:50:07.362Z,56.67
2018-08-27T10:51:08.730Z,57.25
2018-08-27T10:52:10.131Z,58.12
2018-08-27T10:53:11.522Z,58.28
2018-08-27T10:54:12.928Z,59.05
2018-08-27T10:55:14.316Z,59.34
2018-08-27T10:56:15.710Z,60.01
2018-08-27T10:57:17.095Z,59.60
2018-08-27T10:58:18.520Z,59.92
2018-08-27T10:59:19.882Z,59.79
2018-08-27T11:00:21.278Z,59.79
2018-08-27T11:01:22.667Z,60.17
2018-08-27T11:02:24.056Z,60.66
2018-08-27T11:03:25.455Z,60.46
2018-08-27T11:04:26.853Z,60.37
2018-08-27T11:05:28.282Z,60.75
2018-08-27T11:06:29.655Z,61.04
2018-08-27T11:07:31.064Z,61.43
2018-08-27T11:08:32.453Z,61.43
2018-08-27T11:09:33.840Z,61.23
2018-08-27T11:10:35.279Z,60.75
2018-08-27T11:11:36.625Z,60.69
2018-08-27T11:12:38.016Z,60.30
2018-08-27T11:13:39.420Z,60.97
2018-08-27T11:14:40.805Z,60.78
2018-08-27T11:15:42.200Z,60.39
2018-08-27T11:16:43.587Z,60.88
2018-08-27T11:17:44.983Z,60.78
2018-08-27T11:18:46.372Z,61.07
2018-08-27T11:19:47.791Z,61.46
2018-08-27T11:20:49.162Z,62.19
2018-08-27T11:21:50.560Z,62.68
2018-08-27T11:22:51.948Z,62.68
2018-08-27T11:23:53.338Z,63.45
2018-08-27T11:24:54.735Z,63.54
2018-08-27T11:25:56.129Z,63.64
2018-08-27T11:26:57.531Z,64.18
2018-08-27T11:27:58.930Z,64.76
2018-08-27T11:29:00.327Z,65.05
2018-08-27T11:30:01.725Z,65.43
2018-08-27T11:31:03.116Z,66.20
2018-08-27T11:32:04.534Z,66.49
2018-08-27T11:33:05.910Z,66.39
2018-08-27T11:34:07.310Z,67.16
2018-08-27T11:35:08.731Z,67.32
2018-08-27T11:36:10.095Z,67.90
2018-08-27T11:37:11.485Z,67.99
2018-08-27T11:38:12.875Z,68.37
2018-08-27T11:39:14.269Z,69.24
2018-08-27T11:40:15.657Z,69.05
2018-08-27T11:41:17.057Z,69.43
2018-08-27T11:42:18.451Z,68.95
2018-08-27T11:43:19.883Z,68.95
2018-08-27T11:44:21.226Z,69.24
2018-08-27T11:45:22.616Z,69.72
2018-08-27T11:46:24.015Z,69.91
2018-08-27T11:47:25.411Z,70.68
2018-08-27T11:48:26.800Z,70.68
2018-08-27T11:49:28.200Z,70.97
2018-08-27T11:50:29.717Z,71.93
2018-08-27T11:51:30.989Z,73.33
2018-08-27T11:52:32.336Z,73.18
2018-08-27T11:53:33.736Z,73.91
2018-08-27T11:54:35.131Z,75.25
2018-08-27T11:55:36.517Z,76.12
2018-08-27T11:56:37.908Z,76.02
2018-08-27T11:57:39.304Z,76.79
2018-08-27T11:58:40.778Z,77.75
2018-08-27T11:59:42.085Z,79.09
2018-08-27T12:00:43.472Z,80.49
2018-08-27T12:01:44.864Z,82.21
2018-08-27T12:02:46.252Z,83.65
2018-08-27T12:03:47.649Z,83.52
2018-08-27T12:04:49.080Z,84.28
2018-08-27T12:05:50.488Z,85.15
2018-08-27T12:06:51.880Z,86.21
2018-08-27T12:07:53.275Z,86.78
2018-08-27T12:08:54.708Z,87.45
2018-08-27T12:09:56.068Z,88.02
2018-08-27T12:10:57.454Z,89.18
2018-08-27T12:11:58.848Z,88.94
2018-08-27T12:13:00.238Z,89.71
2018-08-27T12:14:01.634Z,91.14
2018-08-27T12:15:03.026Z,91.53
2018-08-27T12:16:05.081Z,92.58
2018-08-27T12:17:06.464Z,94.31
2018-08-27T12:18:07.847Z,94.79
2018-08-27T12:19:09.237Z,94.40
2018-08-27T12:20:10.624Z,95.17
2018-08-27T12:21:12.016Z,95.65
2018-08-27T12:22:13.408Z,96.22
2018-08-27T12:23:14.800Z,95.84
2018-08-27T12:24:16.215Z,94.98
2018-08-27T12:25:17.607Z,96.56
2018-08-27T12:26:18.996Z,96.56
2018-08-27T12:27:20.399Z,97.14
2018-08-27T12:28:21.788Z,98.00
2018-08-27T12:29:23.176Z,98.86
2018-08-27T12:30:24.565Z,98.57
2018-08-27T12:31:25.959Z,98.38
2018-08-27T12:32:27.351Z,97.80
2018-08-27T12:33:28.745Z,99.53
2018-08-27T12:34:30.139Z,99.15
2018-08-27T12:35:31.523Z,99.43
2018-08-27T12:36:32.917Z,99.72
2018-08-27T12:37:34.358Z,99.99
2018-08-27T12:38:35.728Z,99.99
2018-08-27T12:39:37.092Z,99.99
2018-08-27T12:40:38.593Z,99.99
2018-08-27T12:41:40.471Z,99.99
2018-08-27T12:42:41.876Z,99.99
2018-08-27T12:43:43.279Z,99.99
2018-08-27T12:44:44.652Z,99.99
2018-08-27T12:45:46.059Z,99.99
2018-08-27T12:46:47.453Z,99.99
2018-08-27T12:47:48.832Z,99.99
2018-08-27T12:48:50.235Z,99.99
2018-08-27T12:49:51.625Z,99.99
2018-08-27T12:50:53.049Z,99.99
2018-08-27T12:51:54.376Z,99.99
2018-08-27T12:52:55.791Z,99.99
2018-08-27T12:53:57.187Z,99.99
2018-08-27T12:54:58.578Z,99.99
2018-08-27T12:55:59.959Z,99.99
2018-08-27T12:57:01.375Z,99.99
2018-08-27T12:58:02.770Z,99.99
2018-08-27T12:59:04.173Z,99.99
2018-08-27T13:00:05.561Z,99.99
2018-08-27T13:01:06.960Z,99.99
2018-08-27T13:02:08.369Z,99.99
2018-08-27T13:03:09.771Z,99.99
2018-08-27T13:04:11.154Z,99.99
2018-08-27T13:05:12.561Z,99.99
2018-08-27T13:06:13.954Z,99.99
2018-08-27T13:07:15.356Z,99.99
2018-08-27T13:08:16.771Z,99.99
2018-08-27T13:09:18.142Z,99.99
2018-08-27T13:10:19.545Z,99.99